Time;durP1;ratioP1;P1;durP2;ratioP2;P2;SDS_P1;SDS_P2;PMS_P1;PMS_P2;Temp;Humidity;BMP_temperature;BMP_pressure;BME280_temperature;BME280_humidity;BME280_pressure;Samples;Min_cycle;Max_cycle;Signal;HPM_P1;HPM_P2
2021/10/29 00:02:26;;;;;;;29.10;8.50;;;16.20;76.30;;;;;;5061302;28;20009;-76
2021/10/29 00:04:54;;;;;;;22.55;8.18;;;16.20;76.30;;;;;;5061118;28;20367;-76
2021/10/29 00:07:20;;;;;;;26.58;7.97;;;16.20;76.20;;;;;;5060926;28;20021;-76
2021/10/29 00:09:46;;;;;;;23.45;6.85;;;16.20;76.10;;;;;;5061355;28;20458;-76
2021/10/29 00:12:13;;;;;;;22.48;6.75;;;16.20;75.30;;;;;;5060992;28;20045;-76
2021/10/29 00:14:39;;;;;;;23.98;7.00;;;16.20;75.50;;;;;;5061148;28;20032;-76
2021/10/29 00:17:06;;;;;;;22.05;7.05;;;16.20;75.70;;;;;;5061062;28;20455;-76
2021/10/29 00:19:31;;;;;;;22.15;6.32;;;16.20;75.90;;;;;;5061091;28;20105;-76
2021/10/29 00:21:57;;;;;;;23.55;6.10;;;16.20;75.10;;;;;;5061361;28;20059;-76
2021/10/29 00:24:23;;;;;;;20.30;5.45;;;16.20;74.30;;;;;;5061301;28;20378;-76
2021/10/29 00:26:49;;;;;;;16.27;4.28;;;16.20;74.20;;;;;;5060827;28;20031;-76
2021/10/29 00:29:16;;;;;;;23.08;5.03;;;16.10;74.50;;;;;;5059523;28;20458;-76
2021/10/29 00:31:41;;;;;;;20.65;4.32;;;16.00;74.60;;;;;;5060986;28;20013;-76
2021/10/29 00:34:07;;;;;;;16.95;5.57;;;15.90;74.90;;;;;;5059467;28;20103;-76
2021/10/29 00:36:33;;;;;;;12.90;3.63;;;16.00;74.50;;;;;;5060483;28;20039;-76
2021/10/29 00:38:59;;;;;;;15.63;3.80;;;15.90;73.90;;;;;;5060232;28;20029;-76
2021/10/29 00:41:25;;;;;;;19.63;4.80;;;15.80;78.80;;;;;;5060041;28;20036;-77
2021/10/29 00:43:51;;;;;;;19.58;5.07;;;15.60;80.20;;;;;;5060418;28;20021;-77
2021/10/29 00:46:17;;;;;;;20.70;4.55;;;15.60;81.60;;;;;;5059905;28;20053;-76
2021/10/29 00:48:43;;;;;;;21.38;5.28;;;15.60;81.40;;;;;;5059317;28;20032;-76
2021/10/29 00:51:09;;;;;;;16.90;4.50;;;15.50;81.00;;;;;;5060367;28;20024;-76
2021/10/29 00:53:34;;;;;;;27.45;5.32;;;15.50;81.30;;;;;;5060656;28;20032;-76
2021/10/29 00:56:00;;;;;;;24.00;6.05;;;15.50;81.20;;;;;;5060133;28;20032;-76
2021/10/29 00:58:26;;;;;;;27.10;6.15;;;15.50;81.80;;;;;;5060523;28;20100;-76
2021/10/29 01:00:53;;;;;;;24.05;5.38;;;15.50;81.70;;;;;;5060250;28;20021;-76
2021/10/29 01:03:19;;;;;;;25.77;6.82;;;15.60;81.40;;;;;;5060059;28;20032;-76
2021/10/29 01:05:45;;;;;;;24.77;7.45;;;15.60;81.40;;;;;;5060171;28;20079;-76
2021/10/29 01:08:12;;;;;;;26.08;7.45;;;15.50;81.40;;;;;;5058952;28;20031;-76
2021/10/29 01:10:38;;;;;;;30.58;7.28;;;15.60;81.40;;;;;;5060150;28;20333;-76
2021/10/29 01:13:06;;;;;;;28.05;6.55;;;15.60;81.60;;;;;;5059854;28;20025;-76
2021/10/29 01:15:32;;;;;;;26.88;7.38;;;15.60;81.40;;;;;;5059822;28;20147;-76
2021/10/29 01:17:59;;;;;;;25.73;6.68;;;15.60;81.40;;;;;;5059736;28;20033;-76
2021/10/29 01:20:26;;;;;;;27.42;7.30;;;15.70;81.30;;;;;;5059947;28;20049;-76
2021/10/29 01:22:52;;;;;;;30.88;7.13;;;15.60;81.00;;;;;;5059871;28;20028;-76
2021/10/29 01:25:19;;;;;;;24.40;6.75;;;15.60;81.20;;;;;;5059613;28;20025;-76
2021/10/29 01:27:45;;;;;;;26.83;6.55;;;15.70;81.30;;;;;;5059520;28;20025;-76
2021/10/29 01:30:13;;;;;;;25.75;6.32;;;15.70;81.10;;;;;;5060007;28;20467;-76
2021/10/29 01:32:41;;;;;;;31.40;6.35;;;15.70;81.10;;;;;;5059686;28;20021;-76
2021/10/29 01:35:09;;;;;;;20.58;5.88;;;15.70;80.50;;;;;;5059676;28;20351;-77
2021/10/29 01:37:38;;;;;;;28.77;7.07;;;15.70;80.50;;;;;;5059363;28;20033;-76
2021/10/29 01:40:10;;;;;;;24.83;6.50;;;15.70;80.70;;;;;;5059512;28;20475;-76
2021/10/29 01:42:36;;;;;;;23.48;6.80;;;15.70;80.50;;;;;;5059487;28;20044;-76
2021/10/29 01:45:06;;;;;;;22.13;5.93;;;15.70;80.50;;;;;;5058152;28;20032;-76
2021/10/29 01:47:33;;;;;;;26.02;6.40;;;15.70;80.20;;;;;;5058803;28;20117;-76
2021/10/29 01:49:59;;;;;;;24.38;6.32;;;15.70;80.00;;;;;;5059361;28;20446;-76
2021/10/29 01:52:25;;;;;;;22.75;6.05;;;15.70;80.10;;;;;;5058377;28;20047;-76
2021/10/29 01:54:51;;;;;;;27.30;7.13;;;15.70;79.90;;;;;;5059058;28;20021;-76
2021/10/29 01:57:17;;;;;;;24.73;6.57;;;15.70;80.30;;;;;;5059405;28;20044;-77
2021/10/29 01:59:42;;;;;;;26.13;7.53;;;15.70;80.10;;;;;;5059179;28;20085;-76
2021/10/29 02:02:08;;;;;;;27.40;6.30;;;15.70;80.00;;;;;;5059211;28;20032;-76
2021/10/29 02:04:34;;;;;;;28.90;6.78;;;15.70;80.10;;;;;;5058889;28;20473;-76
2021/10/29 02:07:00;;;;;;;31.60;7.80;;;15.70;80.40;;;;;;5058716;28;20435;-76
2021/10/29 02:09:26;;;;;;;35.20;9.10;;;15.70;80.50;;;;;;5058810;28;20032;-77
2021/10/29 02:11:51;;;;;;;29.42;8.13;;;15.70;80.70;;;;;;5059073;28;20109;-76
2021/10/29 02:14:17;;;;;;;35.78;8.98;;;15.70;81.00;;;;;;5058709;28;20025;-76
2021/10/29 02:16:43;;;;;;;43.40;8.88;;;15.70;81.20;;;;;;5058937;28;20086;-76
2021/10/29 02:19:09;;;;;;;31.85;8.18;;;15.70;81.30;;;;;;5058788;28;20029;-77
2021/10/29 02:21:36;;;;;;;33.75;7.78;;;15.70;81.30;;;;;;5058881;28;20108;-76
2021/10/29 02:24:01;;;;;;;26.83;7.13;;;15.70;81.50;;;;;;5058558;28;20039;-76
2021/10/29 02:26:30;;;;;;;25.90;6.57;;;15.70;80.90;;;;;;5058445;28;20032;-76
2021/10/29 02:28:56;;;;;;;34.60;8.68;;;15.60;81.30;;;;;;5057489;28;20021;-76
2021/10/29 02:31:24;;;;;;;35.38;7.75;;;15.70;81.70;;;;;;5058463;28;20344;-76
2021/10/29 02:33:51;;;;;;;33.75;8.27;;;15.60;81.70;;;;;;5058379;28;20358;-76
2021/10/29 02:36:17;;;;;;;41.03;9.57;;;15.70;81.70;;;;;;5057272;28;20033;-76
2021/10/29 02:38:42;;;;;;;37.25;8.50;;;15.70;81.80;;;;;;5058375;28;20031;-76
2021/10/29 02:41:08;;;;;;;33.40;7.80;;;15.70;81.80;;;;;;5057444;28;20032;-76
2021/10/29 02:43:34;;;;;;;27.60;5.80;;;15.70;81.80;;;;;;5058262;28;20443;-76
2021/10/29 02:46:00;;;;;;;24.00;7.03;;;15.70;81.20;;;;;;5058054;28;20072;-76
2021/10/29 02:48:26;;;;;;;25.98;5.30;;;15.70;81.30;;;;;;5058327;28;20104;-76
2021/10/29 02:50:52;;;;;;;25.90;5.40;;;15.60;80.60;;;;;;5057083;28;20379;-76
2021/10/29 02:53:17;;;;;;;27.88;5.93;;;15.60;80.20;;;;;;5058118;28;20028;-76
2021/10/29 02:55:44;;;;;;;28.20;5.63;;;15.60;80.20;;;;;;5057008;28;20110;-76
2021/10/29 02:58:10;;;;;;;23.75;5.22;;;15.60;79.90;;;;;;5058121;28;20025;-76
2021/10/29 03:00:35;;;;;;;23.70;4.65;;;15.60;80.20;;;;;;5058444;28;20040;-76
2021/10/29 03:03:01;;;;;;;25.98;5.45;;;15.60;80.60;;;;;;5058420;28;20124;-76
2021/10/29 03:05:27;;;;;;;32.40;5.43;;;15.60;80.10;;;;;;5062510;28;20025;-76
2021/10/29 03:07:53;;;;;;;32.90;5.43;;;15.50;79.80;;;;;;5062124;28;20360;-76
2021/10/29 03:10:19;;;;;;;30.83;5.88;;;15.50;79.80;;;;;;5062249;28;20316;-76
2021/10/29 03:12:45;;;;;;;24.42;4.82;;;15.50;79.90;;;;;;5062062;28;20029;-76
2021/10/29 03:15:12;;;;;;;26.67;4.85;;;15.50;78.20;;;;;;5062299;28;20029;-76
2021/10/29 03:17:38;;;;;;;22.77;4.55;;;15.50;78.70;;;;;;5062012;28;20032;-76
2021/10/29 03:20:06;;;;;;;24.52;4.38;;;15.50;78.00;;;;;;5062042;28;20025;-76
2021/10/29 03:22:32;;;;;;;22.67;4.40;;;15.50;78.70;;;;;;5061911;28;20025;-76
2021/10/29 03:24:57;;;;;;;22.25;4.47;;;15.50;77.80;;;;;;5061874;28;20100;-76
2021/10/29 03:27:23;;;;;;;18.85;3.50;;;15.50;78.30;;;;;;5061751;28;20079;-76
2021/10/29 03:29:49;;;;;;;15.68;3.15;;;15.50;76.30;;;;;;5062044;28;20052;-76
2021/10/29 03:32:18;;;;;;;14.85;3.08;;;15.40;75.70;;;;;;5061779;28;20039;-76
2021/10/29 03:34:44;;;;;;;19.27;2.95;;;15.40;76.20;;;;;;5060751;28;20045;-76
2021/10/29 03:37:30;;;;;;;21.88;3.80;;;15.40;75.10;;;;;;5061877;28;20025;-76
2021/10/29 03:42:44;;;;;;;14.50;3.30;;;15.50;75.60;;;;;;5061451;28;20112;-77
2021/10/29 03:45:13;;;;;;;20.35;4.88;;;15.50;75.90;;;;;;5060357;28;20036;-76
2021/10/29 03:47:46;;;;;;;18.55;4.13;;;15.50;75.30;;;;;;5060117;28;20413;-76
2021/10/29 03:50:18;;;;;;;18.95;3.47;;;15.50;75.90;;;;;;5061842;28;20028;-76
2021/10/29 03:52:59;;;;;;;23.95;4.68;;;15.50;75.90;;;;;;5061605;28;20017;-76
2021/10/29 03:55:32;;;;;;;20.02;4.03;;;15.50;76.40;;;;;;5061340;28;20025;-76
2021/10/29 03:57:58;;;;;;;19.92;3.65;;;15.50;75.50;;;;;;5061457;28;20029;-76
2021/10/29 04:00:29;;;;;;;18.50;3.50;;;15.50;74.50;;;;;;5061076;28;20087;-74
2021/10/29 04:03:03;;;;;;;15.43;3.33;;;15.50;75.10;;;;;;5061391;28;20043;-76
2021/10/29 04:05:30;;;;;;;21.92;3.47;;;15.40;74.00;;;;;;5061750;28;20051;-77
2021/10/29 04:07:57;;;;;;;17.10;3.67;;;15.40;74.30;;;;;;5061325;28;20033;-76
2021/10/29 04:10:28;;;;;;;17.63;3.55;;;15.50;73.70;;;;;;5059994;28;20021;-76
2021/10/29 04:12:57;;;;;;;23.75;4.10;;;15.50;74.00;;;;;;5059931;28;20048;-76
2021/10/29 04:15:23;;;;;;;22.00;3.90;;;15.50;74.60;;;;;;5060368;28;20045;-76
2021/10/29 04:17:50;;;;;;;20.83;3.58;;;15.50;74.90;;;;;;5061019;28;20479;-76
2021/10/29 04:20:16;;;;;;;17.85;3.63;;;15.40;74.70;;;;;;5060940;28;20037;-76
2021/10/29 04:22:42;;;;;;;16.60;3.67;;;15.50;73.90;;;;;;5060839;28;20025;-77
2021/10/29 04:25:09;;;;;;;17.25;3.30;;;15.40;73.90;;;;;;5061268;28;20041;-76
2021/10/29 04:27:38;;;;;;;20.48;3.92;;;15.40;74.10;;;;;;5059722;28;20455;-76
2021/10/29 04:30:11;;;;;;;12.20;2.90;;;15.40;73.60;;;;;;5060514;28;20406;-76
2021/10/29 04:32:37;;;;;;;18.48;3.88;;;15.40;73.20;;;;;;5060450;28;20089;-76
2021/10/29 04:35:03;;;;;;;14.65;2.78;;;15.40;73.10;;;;;;5060651;28;20384;-76
2021/10/29 04:37:29;;;;;;;16.92;3.20;;;15.40;72.60;;;;;;5060985;28;20098;-76
2021/10/29 04:39:55;;;;;;;19.20;3.67;;;15.40;72.90;;;;;;5060540;28;20029;-76
2021/10/29 04:42:21;;;;;;;19.45;2.90;;;15.40;73.10;;;;;;5060788;28;20028;-76
2021/10/29 04:44:47;;;;;;;18.95;3.15;;;15.40;72.80;;;;;;5060558;28;20163;-76
2021/10/29 04:47:13;;;;;;;18.88;2.60;;;15.40;72.40;;;;;;5060185;28;20052;-76
2021/10/29 04:49:39;;;;;;;16.73;3.47;;;15.30;72.70;;;;;;5059278;28;20024;-76
2021/10/29 04:52:05;;;;;;;15.82;3.25;;;15.40;72.80;;;;;;5060534;28;20029;-76
2021/10/29 04:54:32;;;;;;;16.67;3.33;;;15.40;72.70;;;;;;5060258;28;20048;-76
2021/10/29 04:56:58;;;;;;;20.27;3.33;;;15.40;73.10;;;;;;5060346;28;20040;-76
2021/10/29 04:59:24;;;;;;;22.77;3.72;;;15.40;73.20;;;;;;5060568;28;20025;-76
2021/10/29 05:01:50;;;;;;;18.38;3.47;;;15.30;73.10;;;;;;5058978;28;20040;-76
2021/10/29 05:04:18;;;;;;;18.13;3.63;;;15.40;72.90;;;;;;5060038;28;20029;-76
2021/10/29 05:06:44;;;;;;;22.25;4.03;;;15.30;72.60;;;;;;5059955;28;20036;-76
2021/10/29 05:09:10;;;;;;;19.33;4.00;;;15.30;72.70;;;;;;5060144;28;20021;-76
2021/10/29 05:11:36;;;;;;;18.13;3.40;;;15.30;72.40;;;;;;5059935;28;20033;-76
2021/10/29 05:14:01;;;;;;;17.20;3.55;;;15.30;72.30;;;;;;5058884;28;20021;-76
2021/10/29 05:16:27;;;;;;;19.02;3.80;;;15.30;72.90;;;;;;5058931;28;20029;-76
2021/10/29 05:18:53;;;;;;;17.83;3.25;;;15.40;73.30;;;;;;5059736;28;20114;-76
2021/10/29 05:21:19;;;;;;;16.00;3.10;;;15.30;73.50;;;;;;5059912;28;20040;-76
2021/10/29 05:23:45;;;;;;;18.17;3.58;;;15.30;73.00;;;;;;5058713;28;20094;-76
2021/10/29 05:26:11;;;;;;;16.77;3.67;;;15.30;72.40;;;;;;5058819;28;20021;-75
2021/10/29 05:28:37;;;;;;;16.50;3.75;;;15.30;71.90;;;;;;5059671;28;20034;-76
2021/10/29 05:31:03;;;;;;;16.58;3.33;;;15.30;71.70;;;;;;5059995;28;20138;-76
2021/10/29 05:33:29;;;;;;;20.13;3.83;;;15.20;71.30;;;;;;5058353;28;20082;-76
2021/10/29 05:35:55;;;;;;;17.75;3.50;;;15.20;71.10;;;;;;5059490;28;20013;-76
2021/10/29 05:38:21;;;;;;;20.33;3.35;;;15.20;70.50;;;;;;5058221;28;20056;-76
2021/10/29 05:40:47;;;;;;;12.75;2.55;;;15.20;70.30;;;;;;5059594;28;20044;-76
2021/10/29 05:43:12;;;;;;;14.00;3.15;;;15.20;69.80;;;;;;5059316;28;20021;-76
2021/10/29 05:45:38;;;;;;;11.55;2.78;;;15.20;69.00;;;;;;5059108;28;20093;-76
2021/10/29 05:48:06;;;;;;;13.30;2.75;;;15.10;68.70;;;;;;5059350;28;20477;-76
2021/10/29 05:50:33;;;;;;;14.95;2.47;;;15.10;69.20;;;;;;5059227;28;20028;-76
2021/10/29 05:53:02;;;;;;;12.25;2.88;;;15.10;69.00;;;;;;5059325;28;20021;-76
2021/10/29 05:55:28;;;;;;;16.25;3.10;;;15.20;69.30;;;;;;5059323;28;20114;-76
2021/10/29 05:57:54;;;;;;;15.75;2.92;;;15.20;69.60;;;;;;5059404;28;20029;-76
2021/10/29 06:00:23;;;;;;;16.55;3.22;;;15.20;69.80;;;;;;5059464;28;20033;-76
2021/10/29 06:02:49;;;;;;;16.65;3.03;;;15.20;70.30;;;;;;5059125;28;20040;-76
2021/10/29 06:05:16;;;;;;;15.00;2.90;;;15.20;69.10;;;;;;5059153;28;20033;-77
2021/10/29 06:07:42;;;;;;;13.85;2.90;;;15.20;69.70;;;;;;5058848;28;20021;-76
2021/10/29 06:10:13;;;;;;;16.15;3.35;;;15.20;69.70;;;;;;5059098;28;20025;-76
2021/10/29 06:12:39;;;;;;;22.70;4.78;;;15.20;70.10;;;;;;5058555;28;20103;-76
2021/10/29 06:15:06;;;;;;;17.73;3.65;;;15.20;70.30;;;;;;5059123;28;20065;-75
2021/10/29 06:17:33;;;;;;;16.75;3.35;;;15.10;70.20;;;;;;5058650;28;20017;-76
2021/10/29 06:20:00;;;;;;;14.32;2.70;;;15.20;70.10;;;;;;5058899;28;20534;-76
2021/10/29 06:22:28;;;;;;;19.77;3.50;;;15.10;70.00;;;;;;5058547;28;20112;-76
2021/10/29 06:24:55;;;;;;;13.68;2.67;;;15.10;69.80;;;;;;5058573;28;20447;-76
2021/10/29 06:29:49;;;;;;;21.17;3.60;;;15.10;69.70;;;;;;5058520;28;20447;-76
2021/10/29 06:32:18;;;;;;;14.43;3.03;;;15.10;69.60;;;;;;5058461;28;20028;-76
2021/10/29 06:34:43;;;;;;;13.18;3.00;;;15.10;69.70;;;;;;5058468;28;20021;-76
2021/10/29 06:37:15;;;;;;;19.02;3.47;;;15.10;69.60;;;;;;5058210;28;20044;-76
2021/10/29 06:39:41;;;;;;;16.27;3.58;;;15.10;69.70;;;;;;5058454;28;20028;-76
2021/10/29 06:42:12;;;;;;;11.48;3.05;;;15.10;69.60;;;;;;5058573;28;20032;-76
2021/10/29 06:44:51;;;;;;;18.98;3.63;;;15.00;69.70;;;;;;5058501;28;20057;-76
2021/10/29 07:00:50;;;;;;;10.38;1.83;;;15.00;69.40;;;;;;5058282;28;20040;-76
2021/10/29 07:41:49;;;;;;;13.10;2.70;;;14.90;69.40;;;;;;5057608;28;20126;-76
2021/10/29 07:44:17;;;;;;;15.13;2.88;;;14.90;69.40;;;;;;5056793;28;20025;-76
2021/10/29 07:46:43;;;;;;;13.15;2.70;;;15.00;69.00;;;;;;5057431;28;20131;-75
2021/10/29 07:49:10;;;;;;;12.48;2.50;;;14.90;69.10;;;;;;5058089;28;20032;-76
2021/10/29 07:51:39;;;;;;;15.18;2.88;;;14.90;69.00;;;;;;5061526;28;20059;-76
2021/10/29 07:54:05;;;;;;;16.05;3.10;;;15.00;69.30;;;;;;5061375;28;20041;-76
2021/10/29 07:56:32;;;;;;;14.55;2.88;;;15.00;68.80;;;;;;5061535;28;20083;-76
2021/10/29 07:58:57;;;;;;;11.50;2.35;;;14.90;68.70;;;;;;5061338;28;20021;-76
2021/10/29 08:01:24;;;;;;;12.85;2.88;;;15.00;69.30;;;;;;5061584;28;20110;-76
2021/10/29 08:03:50;;;;;;;11.93;2.83;;;15.00;69.30;;;;;;5060287;28;20029;-76
2021/10/29 08:06:16;;;;;;;15.00;3.03;;;15.00;68.90;;;;;;5061194;28;20148;-76
2021/10/29 08:08:42;;;;;;;14.20;2.50;;;15.00;69.00;;;;;;5061134;28;20081;-76
2021/10/29 08:11:08;;;;;;;12.05;3.05;;;15.00;68.60;;;;;;5061354;28;20094;-76
2021/10/29 08:13:33;;;;;;;14.07;2.75;;;15.00;68.80;;;;;;5061276;28;20021;-76
2021/10/29 08:16:03;;;;;;;12.15;2.75;;;15.00;68.80;;;;;;5061255;28;20040;-76
2021/10/29 08:18:30;;;;;;;16.25;2.83;;;15.00;68.90;;;;;;5060850;28;20459;-76
2021/10/29 08:20:56;;;;;;;13.48;3.38;;;15.00;69.00;;;;;;5060901;28;20035;-76
2021/10/29 08:23:22;;;;;;;16.70;2.88;;;15.00;69.10;;;;;;5059766;28;20116;-76
2021/10/29 08:25:48;;;;;;;20.75;3.92;;;15.00;68.90;;;;;;5059811;28;20025;-76
2021/10/29 08:28:14;;;;;;;16.02;3.10;;;15.00;68.50;;;;;;5060749;28;20029;-76
2021/10/29 08:30:41;;;;;;;17.13;3.15;;;15.00;68.40;;;;;;5060748;28;20017;-77
2021/10/29 08:33:07;;;;;;;16.30;3.15;;;15.00;68.40;;;;;;5060911;28;20066;-76
2021/10/29 08:35:33;;;;;;;15.40;3.10;;;15.00;68.10;;;;;;5060631;28;20036;-76
2021/10/29 08:37:59;;;;;;;12.70;2.90;;;15.00;67.90;;;;;;5061083;28;20467;-76
2021/10/29 08:40:25;;;;;;;11.40;3.13;;;15.00;68.10;;;;;;5060531;28;20025;-76
2021/10/29 08:42:52;;;;;;;15.95;3.45;;;15.00;67.60;;;;;;5060822;28;20071;-76
2021/10/29 08:45:18;;;;;;;12.82;2.47;;;15.00;67.80;;;;;;5060471;28;20032;-76
2021/10/29 08:47:46;;;;;;;12.23;3.20;;;15.00;67.30;;;;;;5060010;28;20071;-76
2021/10/29 08:50:16;;;;;;;13.63;3.10;;;15.00;67.00;;;;;;5060358;28;20070;-76
2021/10/29 08:52:44;;;;;;;11.75;2.25;;;15.00;66.80;;;;;;5060573;28;20032;-76
2021/10/29 08:55:11;;;;;;;22.02;2.75;;;15.10;66.90;;;;;;5060317;28;20382;-76
2021/10/29 08:57:37;;;;;;;15.23;2.80;;;15.20;66.80;;;;;;5060457;28;20021;-76
2021/10/29 09:00:13;;;;;;;17.23;3.13;;;15.20;66.40;;;;;;5060589;28;20488;-76
2021/10/29 09:03:46;;;;;;;16.45;3.40;;;15.20;66.10;;;;;;5060337;28;20032;-76
2021/10/29 09:06:01;;;;;;;12.15;2.58;;;15.30;66.10;;;;;;5059466;28;20045;-76
2021/10/29 09:11:54;;;;;;;17.73;3.78;;;15.30;66.40;;;;;;5059860;28;20080;-76
2021/10/29 09:34:10;;;;;;;13.18;2.83;;;15.60;65.70;;;;;;5055326;28;20542;-76
2021/10/29 09:36:39;;;;;;;11.05;3.10;;;15.70;65.00;;;;;;5059419;28;20495;-76
2021/10/29 09:39:05;;;;;;;18.15;3.65;;;15.70;65.30;;;;;;5059621;28;20390;-76
2021/10/29 09:41:31;;;;;;;13.48;2.50;;;15.80;65.30;;;;;;5059167;28;20025;-76
2021/10/29 09:44:17;;;;;;;15.10;3.00;;;16.00;65.10;;;;;;5059414;28;20021;-76
2021/10/29 09:46:56;;;;;;;14.43;2.90;;;16.10;64.20;;;;;;5059035;28;20056;-76
2021/10/29 09:52:48;;;;;;;13.93;3.08;;;16.50;64.30;;;;;;5058212;28;20131;-76
2021/10/29 09:55:35;;;;;;;14.95;2.72;;;16.60;64.00;;;;;;5058909;28;20025;-76
2021/10/29 09:58:01;;;;;;;10.75;2.33;;;16.80;63.60;;;;;;5058915;28;20540;-76
2021/10/29 10:00:30;;;;;;;12.35;2.67;;;17.00;62.80;;;;;;5059013;28;20025;-76
2021/10/29 10:02:57;;;;;;;11.90;2.63;;;17.10;63.10;;;;;;5058927;28;20439;-76
2021/10/29 10:05:24;;;;;;;13.43;2.83;;;17.20;63.00;;;;;;5058050;28;20025;-76
2021/10/29 10:07:51;;;;;;;13.05;2.90;;;17.40;62.80;;;;;;5059008;28;20884;-76
2021/10/29 10:10:18;;;;;;;11.07;2.50;;;17.50;63.20;;;;;;5059005;28;20017;-76
2021/10/29 10:12:46;;;;;;;12.85;3.28;;;17.60;62.20;;;;;;5058442;28;20025;-77
2021/10/29 10:15:13;;;;;;;10.70;3.08;;;17.80;61.90;;;;;;5058795;28;20028;-76
2021/10/29 10:17:39;;;;;;;11.43;2.70;;;17.80;62.70;;;;;;5058954;28;20047;-76
2021/10/29 10:20:07;;;;;;;14.13;2.65;;;18.00;61.90;;;;;;5058753;28;20017;-76
2021/10/29 10:22:40;;;;;;;12.32;3.03;;;18.10;62.50;;;;;;5058654;28;20031;-76
2021/10/29 10:25:39;;;;;;;11.20;2.42;;;18.10;61.60;;;;;;5058523;28;20476;-76
2021/10/29 10:47:03;;;;;;;17.88;3.28;;;18.40;60.90;;;;;;5058298;28;20049;-76
2021/10/29 10:49:44;;;;;;;12.20;2.50;;;18.40;61.40;;;;;;5058325;28;20021;-76
2021/10/29 10:52:22;;;;;;;13.35;2.65;;;18.40;60.60;;;;;;5058074;28;20471;-76
2021/10/29 10:54:57;;;;;;;10.57;2.45;;;18.40;60.50;;;;;;5058492;28;20052;-76
2021/10/29 11:00:00;;;;;;;13.23;2.60;;;18.40;60.60;;;;;;5058346;28;20079;-76
2021/10/29 11:05:39;;;;;;;11.02;2.22;;;18.30;60.10;;;;;;5058375;28;20151;-76
2021/10/29 11:10:55;;;;;;;13.68;2.58;;;18.20;60.70;;;;;;5057906;28;20036;-76
2021/10/29 11:13:22;;;;;;;14.60;3.53;;;18.20;60.90;;;;;;5058079;28;20020;-76
2021/10/29 11:16:01;;;;;;;14.10;3.13;;;18.20;60.90;;;;;;5058101;28;20119;-76
2021/10/29 11:18:30;;;;;;;11.27;2.30;;;18.20;60.80;;;;;;5056904;28;20056;-76
2021/10/29 11:21:20;;;;;;;17.98;2.70;;;18.10;60.40;;;;;;5058037;28;20025;-76
2021/10/29 11:24:07;;;;;;;14.70;2.53;;;18.10;61.40;;;;;;5059072;28;20021;-76
2021/10/29 11:26:46;;;;;;;10.35;2.42;;;18.10;61.10;;;;;;5062177;28;20059;-76
2021/10/29 11:29:12;;;;;;;14.35;2.72;;;18.10;61.00;;;;;;5061935;28;20013;-76
2021/10/29 11:31:43;;;;;;;16.85;2.50;;;18.10;60.70;;;;;;5062073;28;20107;-76
2021/10/29 11:34:13;;;;;;;11.13;2.30;;;18.10;60.80;;;;;;5061827;28;20032;-76
2021/10/29 11:36:53;;;;;;;11.68;2.20;;;18.20;60.20;;;;;;5061913;28;20024;-76
2021/10/29 11:39:21;;;;;;;12.68;2.30;;;18.30;60.70;;;;;;5061785;28;20017;-76
2021/10/29 11:41:50;;;;;;;9.23;2.58;;;18.30;60.60;;;;;;5061786;28;20117;-76
2021/10/29 11:44:21;;;;;;;8.52;1.98;;;18.40;60.40;;;;;;5060709;28;20051;-76
2021/10/29 11:46:48;;;;;;;10.30;2.50;;;18.40;60.30;;;;;;5061392;28;20040;-76
2021/10/29 11:49:18;;;;;;;9.85;2.15;;;18.50;60.40;;;;;;5061771;28;20017;-76
2021/10/29 11:51:45;;;;;;;11.48;2.25;;;18.70;60.10;;;;;;5061314;28;20585;-76
2021/10/29 11:54:26;;;;;;;11.25;2.03;;;18.90;60.40;;;;;;5061388;28;20021;-76
2021/10/29 11:59:41;;;;;;;11.60;2.58;;;19.00;59.60;;;;;;5061372;28;20463;-76
2021/10/29 12:07:26;;;;;;;15.65;3.38;;;19.00;59.20;;;;;;5061425;28;20086;-76
2021/10/29 12:10:03;;;;;;;12.75;2.60;;;19.00;60.30;;;;;;5061506;28;20071;-76
2021/10/29 12:12:29;;;;;;;9.30;2.10;;;19.00;58.50;;;;;;5061220;28;20044;-76
2021/10/29 12:15:04;;;;;;;10.40;1.83;;;19.20;58.90;;;;;;5060969;28;20055;-76
2021/10/29 12:17:40;;;;;;;12.35;2.70;;;19.40;57.40;;;;;;5061115;28;20052;-76
2021/10/29 12:20:13;;;;;;;10.32;2.63;;;19.60;59.70;;;;;;5060733;28;20040;-76
2021/10/29 12:22:41;;;;;;;7.43;1.90;;;19.70;59.80;;;;;;5060631;28;20507;-76
2021/10/29 12:27:47;;;;;;;10.73;2.25;;;20.20;56.80;;;;;;5060705;28;20067;-76
2021/10/29 12:30:27;;;;;;;10.85;2.08;;;20.40;59.00;;;;;;5061233;28;20044;-76
2021/10/29 12:52:28;;;;;;;15.63;2.75;;;20.60;53.40;;;;;;5058915;28;20032;-76
2021/10/29 13:03:10;;;;;;;19.17;3.10;;;19.80;60.80;;;;;;5059962;28;20035;-76
2021/10/29 13:05:36;;;;;;;11.95;2.63;;;19.60;63.00;;;;;;5060107;28;20092;-76
2021/10/29 13:08:22;;;;;;;11.82;2.17;;;19.20;64.00;;;;;;5060026;28;20025;-76
2021/10/29 13:10:55;;;;;;;11.20;2.47;;;19.00;65.30;;;;;;5059078;28;20037;-76
2021/10/29 13:13:26;;;;;;;12.05;3.83;;;18.90;65.30;;;;;;5060144;28;20068;-76
2021/10/29 13:15:59;;;;;;;18.05;4.82;;;18.90;65.90;;;;;;5060101;28;20092;-76
2021/10/29 13:18:32;;;;;;;12.07;3.05;;;18.90;66.80;;;;;;5059932;28;20109;-76
2021/10/29 13:26:37;;;;;;;10.93;1.85;;;19.30;66.10;;;;;;5059443;28;20024;-76
2021/10/29 13:52:57;;;;;;;12.00;2.47;;;19.60;60.40;;;;;;5059187;28;20055;-76
2021/10/29 14:24:20;;;;;;;9.00;1.80;;;20.10;58.60;;;;;;5058726;28;20048;-76
2021/10/29 14:35:28;;;;;;;13.32;2.20;;;20.60;55.00;;;;;;5058796;28;20025;-76
2021/10/29 14:40:46;;;;;;;9.95;1.83;;;20.70;56.90;;;;;;5058748;28;20036;-76
2021/10/29 15:27:09;;;;;;;12.00;2.88;;;18.20;60.50;;;;;;5057622;28;20346;-77
2021/10/29 15:29:45;;;;;;;10.40;2.05;;;18.00;61.30;;;;;;5057956;28;20459;-77
2021/10/29 15:46:14;;;;;;;13.65;2.33;;;17.50;60.80;;;;;;5055642;28;20076;-76
2021/10/29 15:48:46;;;;;;;14.48;2.38;;;17.30;60.40;;;;;;5054439;28;20044;-76
2021/10/29 15:51:12;;;;;;;11.35;2.38;;;17.30;60.90;;;;;;5057562;28;20040;-76
2021/10/29 15:53:39;;;;;;;12.38;2.10;;;17.30;60.80;;;;;;5058046;28;20788;-75
2021/10/29 15:56:13;;;;;;;10.02;2.05;;;17.00;60.40;;;;;;5057794;28;20044;-76
2021/10/29 16:01:14;;;;;;;12.85;2.47;;;16.80;61.10;;;;;;5057766;28;20036;-75
2021/10/29 16:03:51;;;;;;;9.80;1.85;;;16.70;60.60;;;;;;5057781;28;20029;-75
2021/10/29 16:17:28;;;;;;;16.80;2.45;;;16.40;62.00;;;;;;5061320;28;20040;-75
2021/10/29 16:19:54;;;;;;;13.77;2.58;;;16.20;62.50;;;;;;5061219;28;20355;-75
2021/10/29 16:22:30;;;;;;;16.15;2.25;;;16.30;62.80;;;;;;5061000;28;20085;-75
2021/10/29 16:25:03;;;;;;;12.38;2.80;;;16.20;61.80;;;;;;5061027;28;20418;-75
2021/10/29 16:30:05;;;;;;;12.63;2.22;;;16.10;62.50;;;;;;5060723;28;20293;-76
2021/10/29 16:35:15;;;;;;;;;;;15.90;62.90;;;;;;5061440;28;20067;-76
2021/10/29 16:37:41;;;;;;;12.45;1.95;;;15.90;63.10;;;;;;5060409;28;19913;-76
2021/10/29 16:40:07;;;;;;;11.43;2.10;;;15.90;63.20;;;;;;5059239;28;20017;-76
2021/10/29 16:42:33;;;;;;;12.43;2.40;;;15.90;63.40;;;;;;5060824;28;20019;-76
2021/10/29 16:44:59;;;;;;;10.70;2.20;;;15.80;63.40;;;;;;5060592;28;20056;-76
2021/10/29 16:47:27;;;;;;;11.32;2.05;;;15.70;63.60;;;;;;5060383;28;20370;-76
2021/10/29 16:49:53;;;;;;;15.30;2.78;;;15.80;63.90;;;;;;5059486;28;20035;-76
2021/10/29 16:52:19;;;;;;;10.68;2.10;;;15.70;64.00;;;;;;5058769;28;20108;-76
2021/10/29 16:54:45;;;;;;;13.95;2.17;;;15.60;63.90;;;;;;5060323;28;20058;-76
2021/10/29 16:57:11;;;;;;;10.50;3.05;;;15.50;63.90;;;;;;5058937;28;20021;-79
2021/10/29 16:59:36;;;;;;;16.65;2.55;;;15.60;64.00;;;;;;5058798;28;20104;-80
2021/10/29 17:02:03;;;;;;;14.57;2.10;;;15.60;64.20;;;;;;5059741;28;20094;-79
2021/10/29 17:04:28;;;;;;;12.68;2.25;;;15.50;64.10;;;;;;5059798;28;20351;-79
2021/10/29 17:06:54;;;;;;;16.40;2.92;;;15.50;64.20;;;;;;5060295;28;20021;-80
2021/10/29 17:09:20;;;;;;;12.18;2.15;;;15.40;64.60;;;;;;5059954;28;20118;-79
2021/10/29 17:11:46;;;;;;;10.05;1.98;;;15.40;64.20;;;;;;5059734;28;20378;-79
2021/10/29 17:14:12;;;;;;;9.88;2.30;;;15.40;63.90;;;;;;5060231;28;20033;-81
2021/10/29 17:16:38;;;;;;;14.88;2.58;;;15.40;64.10;;;;;;5059466;28;20025;-79
2021/10/29 17:19:04;;;;;;;12.10;2.60;;;15.50;64.00;;;;;;5060786;28;20473;-80
2021/10/29 17:21:30;;;;;;;13.30;2.65;;;15.60;64.10;;;;;;5059502;28;20029;-80
2021/10/29 17:23:55;;;;;;;18.40;3.28;;;15.60;64.10;;;;;;5060035;28;20067;-77
2021/10/29 17:26:21;;;;;;;14.98;2.58;;;15.70;64.20;;;;;;5059136;28;20025;-76
2021/10/29 17:28:47;;;;;;;16.10;2.63;;;15.90;63.80;;;;;;5059648;28;20036;-76
2021/10/29 17:31:13;;;;;;;13.98;2.50;;;16.10;63.30;;;;;;5059609;28;20017;-80
2021/10/29 17:33:39;;;;;;;10.75;2.65;;;16.20;63.30;;;;;;5059990;28;20033;-76
2021/10/29 17:36:05;;;;;;;15.25;3.80;;;16.30;63.30;;;;;;5059380;28;20025;-76
2021/10/29 17:38:31;;;;;;;12.20;2.55;;;16.30;62.90;;;;;;5059621;28;20033;-76
2021/10/29 17:40:57;;;;;;;12.70;2.25;;;16.40;62.90;;;;;;5059201;28;20013;-76